sensor_id;sensor_type;location;lat;lon;timestamp;temperature;humidity
7842;DHT22;3966;51.052;13.820;2023-04-06T00:01:07;1.80;99.90
7842;DHT22;3966;51.052;13.820;2023-04-06T00:03:34;1.80;99.90
7842;DHT22;3966;51.052;13.820;2023-04-06T00:05:59;1.80;99.90
7842;DHT22;3966;51.052;13.820;2023-04-06T00:08:26;1.70;99.90
7842;DHT22;3966;51.052;13.820;2023-04-06T00:10:51;1.70;99.90
7842;DHT22;3966;51.052;13.820;2023-04-06T00:13:17;1.60;99.90
7842;DHT22;3966;51.052;13.820;2023-04-06T00:15:43;1.70;99.90
7842;DHT22;3966;51.052;13.820;2023-04-06T00:18:08;1.60;99.90
7842;DHT22;3966;51.052;13.820;2023-04-06T00:20:34;1.70;99.90
7842;DHT22;3966;51.052;13.820;2023-04-06T00:23:00;1.70;99.90
7842;DHT22;3966;51.052;13.820;2023-04-06T00:25:26;1.80;99.90
7842;DHT22;3966;51.052;13.820;2023-04-06T00:27:51;1.80;99.90
7842;DHT22;3966;51.052;13.820;2023-04-06T00:30:17;1.80;99.90
7842;DHT22;3966;51.052;13.820;2023-04-06T00:32:43;1.70;99.90
7842;DHT22;3966;51.052;13.820;2023-04-06T00:35:09;1.70;99.90
7842;DHT22;3966;51.052;13.820;2023-04-06T00:37:34;1.70;99.90
7842;DHT22;3966;51.052;13.820;2023-04-06T00:40:00;1.50;99.90
7842;DHT22;3966;51.052;13.820;2023-04-06T00:42:26;1.50;99.90
7842;DHT22;3966;51.052;13.820;2023-04-06T00:44:53;1.50;99.90
7842;DHT22;3966;51.052;13.820;2023-04-06T00:47:19;1.50;99.90
7842;DHT22;3966;51.052;13.820;2023-04-06T00:49:45;1.50;99.90
7842;DHT22;3966;51.052;13.820;2023-04-06T00:52:10;1.60;99.90
7842;DHT22;3966;51.052;13.820;2023-04-06T00:54:36;1.60;99.90
7842;DHT22;3966;51.052;13.820;2023-04-06T00:57:02;1.60;99.90
7842;DHT22;3966;51.052;13.820;2023-04-06T00:59:28;1.60;99.90
7842;DHT22;3966;51.052;13.820;2023-04-06T01:01:54;1.60;99.90
7842;DHT22;3966;51.052;13.820;2023-04-06T01:04:20;1.60;99.90
7842;DHT22;3966;51.052;13.820;2023-04-06T01:06:48;1.60;99.90
7842;DHT22;3966;51.052;13.820;2023-04-06T01:09:15;1.50;99.90
7842;DHT22;3966;51.052;13.820;2023-04-06T01:11:40;1.50;99.90
7842;DHT22;3966;51.052;13.820;2023-04-06T01:14:06;1.50;99.90
7842;DHT22;3966;51.052;13.820;2023-04-06T01:16:33;1.30;99.90
7842;DHT22;3966;51.052;13.820;2023-04-06T01:18:59;1.40;99.90
7842;DHT22;3966;51.052;13.820;2023-04-06T01:21:24;1.40;99.90
7842;DHT22;3966;51.052;13.820;2023-04-06T01:23:50;1.40;99.90
7842;DHT22;3966;51.052;13.820;2023-04-06T01:26:16;1.40;99.90
7842;DHT22;3966;51.052;13.820;2023-04-06T01:28:42;1.40;99.90
7842;DHT22;3966;51.052;13.820;2023-04-06T01:31:10;1.40;99.90
7842;DHT22;3966;51.052;13.820;2023-04-06T01:33:35;1.40;99.90
7842;DHT22;3966;51.052;13.820;2023-04-06T01:36:02;1.40;99.90
7842;DHT22;3966;51.052;13.820;2023-04-06T01:38:28;1.30;99.90
7842;DHT22;3966;51.052;13.820;2023-04-06T01:40:54;1.30;99.90
7842;DHT22;3966;51.052;13.820;2023-04-06T01:43:20;1.30;99.90
7842;DHT22;3966;51.052;13.820;2023-04-06T01:45:46;1.20;99.90
7842;DHT22;3966;51.052;13.820;2023-04-06T01:48:12;1.30;99.90
7842;DHT22;3966;51.052;13.820;2023-04-06T01:50:38;1.30;99.90
7842;DHT22;3966;51.052;13.820;2023-04-06T01:53:03;1.20;99.90
7842;DHT22;3966;51.052;13.820;2023-04-06T01:55:29;1.20;99.90
7842;DHT22;3966;51.052;13.820;2023-04-06T01:57:55;1.20;99.90
7842;DHT22;3966;51.052;13.820;2023-04-06T02:00:20;1.10;99.90
7842;DHT22;3966;51.052;13.820;2023-04-06T02:02:46;1.20;99.90
7842;DHT22;3966;51.052;13.820;2023-04-06T02:05:12;1.10;99.90
7842;DHT22;3966;51.052;13.820;2023-04-06T02:07:38;1.10;99.90
7842;DHT22;3966;51.052;13.820;2023-04-06T02:10:04;1.00;99.90
7842;DHT22;3966;51.052;13.820;2023-04-06T02:12:30;1.10;99.90
7842;DHT22;3966;51.052;13.820;2023-04-06T02:14:55;1.10;99.90
7842;DHT22;3966;51.052;13.820;2023-04-06T02:17:21;1.10;99.90
7842;DHT22;3966;51.052;13.820;2023-04-06T02:19:47;1.00;99.90
7842;DHT22;3966;51.052;13.820;2023-04-06T02:22:12;1.00;99.90
7842;DHT22;3966;51.052;13.820;2023-04-06T02:24:38;1.00;99.90
7842;DHT22;3966;51.052;13.820;2023-04-06T02:27:04;1.00;99.90
7842;DHT22;3966;51.052;13.820;2023-04-06T02:29:29;1.00;99.90
7842;DHT22;3966;51.052;13.820;2023-04-06T02:31:55;1.00;99.90
7842;DHT22;3966;51.052;13.820;2023-04-06T02:34:21;1.00;99.90
7842;DHT22;3966;51.052;13.820;2023-04-06T02:36:47;0.90;99.90
7842;DHT22;3966;51.052;13.820;2023-04-06T02:39:13;0.90;99.90
7842;DHT22;3966;51.052;13.820;2023-04-06T02:41:39;0.80;99.90
7842;DHT22;3966;51.052;13.820;2023-04-06T02:44:09;0.80;99.90
7842;DHT22;3966;51.052;13.820;2023-04-06T02:46:34;0.80;99.90
7842;DHT22;3966;51.052;13.820;2023-04-06T02:49:00;0.80;99.90
7842;DHT22;3966;51.052;13.820;2023-04-06T02:51:27;0.80;99.90
7842;DHT22;3966;51.052;13.820;2023-04-06T02:53:52;0.80;99.90
7842;DHT22;3966;51.052;13.820;2023-04-06T02:56:18;0.70;99.90
7842;DHT22;3966;51.052;13.820;2023-04-06T02:58:45;0.70;99.90
7842;DHT22;3966;51.052;13.820;2023-04-06T03:01:11;0.60;99.90
7842;DHT22;3966;51.052;13.820;2023-04-06T03:03:37;0.60;99.90
7842;DHT22;3966;51.052;13.820;2023-04-06T03:06:02;0.60;99.90
7842;DHT22;3966;51.052;13.820;2023-04-06T03:08:28;0.60;99.90
7842;DHT22;3966;51.052;13.820;2023-04-06T03:10:54;0.70;99.90
7842;DHT22;3966;51.052;13.820;2023-04-06T03:13:20;0.60;99.90
7842;DHT22;3966;51.052;13.820;2023-04-06T03:15:46;0.60;99.90
7842;DHT22;3966;51.052;13.820;2023-04-06T03:18:12;0.60;99.90
7842;DHT22;3966;51.052;13.820;2023-04-06T03:20:37;0.50;99.90
7842;DHT22;3966;51.052;13.820;2023-04-06T03:23:03;0.50;99.90
7842;DHT22;3966;51.052;13.820;2023-04-06T03:25:29;0.50;99.90
7842;DHT22;3966;51.052;13.820;2023-04-06T03:27:55;0.60;99.90
7842;DHT22;3966;51.052;13.820;2023-04-06T03:30:21;0.60;99.90
7842;DHT22;3966;51.052;13.820;2023-04-06T03:32:47;0.50;99.90
7842;DHT22;3966;51.052;13.820;2023-04-06T03:35:13;0.50;99.90
7842;DHT22;3966;51.052;13.820;2023-04-06T03:37:38;0.50;99.90
7842;DHT22;3966;51.052;13.820;2023-04-06T03:40:05;0.50;99.90
7842;DHT22;3966;51.052;13.820;2023-04-06T03:42:31;0.50;99.90
7842;DHT22;3966;51.052;13.820;2023-04-06T03:44:58;0.50;99.90
7842;DHT22;3966;51.052;13.820;2023-04-06T03:47:24;0.40;99.90
7842;DHT22;3966;51.052;13.820;2023-04-06T03:49:50;0.40;99.90
7842;DHT22;3966;51.052;13.820;2023-04-06T03:52:16;0.40;99.90
7842;DHT22;3966;51.052;13.820;2023-04-06T03:54:42;0.40;99.90
7842;DHT22;3966;51.052;13.820;2023-04-06T03:57:07;0.40;99.90
7842;DHT22;3966;51.052;13.820;2023-04-06T03:59:33;0.40;99.90
7842;DHT22;3966;51.052;13.820;2023-04-06T04:01:59;0.40;99.90
7842;DHT22;3966;51.052;13.820;2023-04-06T04:04:24;0.40;99.90
7842;DHT22;3966;51.052;13.820;2023-04-06T04:06:50;0.40;99.90
7842;DHT22;3966;51.052;13.820;2023-04-06T04:09:16;0.40;99.90
7842;DHT22;3966;51.052;13.820;2023-04-06T04:11:41;0.40;99.90
7842;DHT22;3966;51.052;13.820;2023-04-06T04:14:07;0.40;99.90
7842;DHT22;3966;51.052;13.820;2023-04-06T04:16:33;0.30;99.90
7842;DHT22;3966;51.052;13.820;2023-04-06T04:18:59;0.30;99.90
7842;DHT22;3966;51.052;13.820;2023-04-06T04:21:24;0.30;99.90
7842;DHT22;3966;51.052;13.820;2023-04-06T04:23:51;0.30;99.90
7842;DHT22;3966;51.052;13.820;2023-04-06T04:26:18;0.30;99.90
7842;DHT22;3966;51.052;13.820;2023-04-06T04:28:43;0.30;99.90
7842;DHT22;3966;51.052;13.820;2023-04-06T04:31:09;0.30;99.90
7842;DHT22;3966;51.052;13.820;2023-04-06T04:33:35;0.30;99.90
7842;DHT22;3966;51.052;13.820;2023-04-06T04:36:01;0.20;99.90
7842;DHT22;3966;51.052;13.820;2023-04-06T04:38:27;0.20;99.90
7842;DHT22;3966;51.052;13.820;2023-04-06T04:40:52;0.20;99.90
7842;DHT22;3966;51.052;13.820;2023-04-06T04:43:18;0.20;99.90
7842;DHT22;3966;51.052;13.820;2023-04-06T04:45:44;0.20;99.90
7842;DHT22;3966;51.052;13.820;2023-04-06T04:48:09;0.20;99.90
7842;DHT22;3966;51.052;13.820;2023-04-06T04:50:35;0.20;99.90
7842;DHT22;3966;51.052;13.820;2023-04-06T04:53:01;0.20;99.90
7842;DHT22;3966;51.052;13.820;2023-04-06T04:55:27;0.30;99.90
7842;DHT22;3966;51.052;13.820;2023-04-06T04:57:54;0.30;99.90
7842;DHT22;3966;51.052;13.820;2023-04-06T05:00:20;0.30;99.90
7842;DHT22;3966;51.052;13.820;2023-04-06T05:02:46;0.20;99.90
7842;DHT22;3966;51.052;13.820;2023-04-06T05:05:12;0.20;99.90
7842;DHT22;3966;51.052;13.820;2023-04-06T05:07:37;0.20;99.90
7842;DHT22;3966;51.052;13.820;2023-04-06T05:10:03;0.20;99.90
7842;DHT22;3966;51.052;13.820;2023-04-06T05:12:29;0.20;99.90
7842;DHT22;3966;51.052;13.820;2023-04-06T05:14:55;0.20;99.90
7842;DHT22;3966;51.052;13.820;2023-04-06T05:17:20;0.30;99.90
7842;DHT22;3966;51.052;13.820;2023-04-06T05:19:46;0.30;99.90
7842;DHT22;3966;51.052;13.820;2023-04-06T05:22:12;0.20;99.90
7842;DHT22;3966;51.052;13.820;2023-04-06T05:24:39;0.20;99.90
7842;DHT22;3966;51.052;13.820;2023-04-06T05:27:05;0.10;99.90
7842;DHT22;3966;51.052;13.820;2023-04-06T05:29:31;0.20;99.90
7842;DHT22;3966;51.052;13.820;2023-04-06T05:31:57;0.20;99.90
7842;DHT22;3966;51.052;13.820;2023-04-06T05:34:23;0.30;99.90
7842;DHT22;3966;51.052;13.820;2023-04-06T05:36:49;0.30;99.90
7842;DHT22;3966;51.052;13.820;2023-04-06T05:39:14;0.40;99.90
7842;DHT22;3966;51.052;13.820;2023-04-06T05:41:41;0.50;99.90
7842;DHT22;3966;51.052;13.820;2023-04-06T05:44:06;0.40;99.90
7842;DHT22;3966;51.052;13.820;2023-04-06T05:46:32;0.40;99.90
7842;DHT22;3966;51.052;13.820;2023-04-06T05:48:58;0.50;99.90
7842;DHT22;3966;51.052;13.820;2023-04-06T05:51:23;0.60;99.90
7842;DHT22;3966;51.052;13.820;2023-04-06T05:53:49;0.60;99.90
7842;DHT22;3966;51.052;13.820;2023-04-06T05:56:15;0.50;99.90
7842;DHT22;3966;51.052;13.820;2023-04-06T05:58:41;0.60;99.90
7842;DHT22;3966;51.052;13.820;2023-04-06T06:01:06;0.60;99.90
7842;DHT22;3966;51.052;13.820;2023-04-06T06:03:34;0.70;99.90
7842;DHT22;3966;51.052;13.820;2023-04-06T06:06:03;0.70;99.90
7842;DHT22;3966;51.052;13.820;2023-04-06T06:08:30;0.70;99.90
7842;DHT22;3966;51.052;13.820;2023-04-06T06:10:56;0.70;99.90
7842;DHT22;3966;51.052;13.820;2023-04-06T06:13:23;0.80;99.90
7842;DHT22;3966;51.052;13.820;2023-04-06T06:15:49;0.80;99.90
7842;DHT22;3966;51.052;13.820;2023-04-06T06:18:15;0.80;99.90
7842;DHT22;3966;51.052;13.820;2023-04-06T06:20:40;0.80;99.90
7842;DHT22;3966;51.052;13.820;2023-04-06T06:23:06;0.90;99.90
7842;DHT22;3966;51.052;13.820;2023-04-06T06:25:32;0.90;99.90
7842;DHT22;3966;51.052;13.820;2023-04-06T06:27:58;1.00;99.90
7842;DHT22;3966;51.052;13.820;2023-04-06T06:30:25;1.00;99.90
7842;DHT22;3966;51.052;13.820;2023-04-06T06:32:51;1.00;99.90
7842;DHT22;3966;51.052;13.820;2023-04-06T06:35:17;1.00;99.90
7842;DHT22;3966;51.052;13.820;2023-04-06T06:37:43;1.10;99.90
7842;DHT22;3966;51.052;13.820;2023-04-06T06:40:09;1.20;99.90
7842;DHT22;3966;51.052;13.820;2023-04-06T06:42:36;1.30;99.90
7842;DHT22;3966;51.052;13.820;2023-04-06T06:45:02;1.40;99.90
7842;DHT22;3966;51.052;13.820;2023-04-06T06:47:28;1.50;99.90
7842;DHT22;3966;51.052;13.820;2023-04-06T06:49:53;1.60;99.90
7842;DHT22;3966;51.052;13.820;2023-04-06T06:52:19;1.80;99.90
7842;DHT22;3966;51.052;13.820;2023-04-06T06:54:44;1.90;99.90
7842;DHT22;3966;51.052;13.820;2023-04-06T06:57:10;2.00;99.90
7842;DHT22;3966;51.052;13.820;2023-04-06T06:59:36;2.10;99.90
7842;DHT22;3966;51.052;13.820;2023-04-06T07:02:01;2.20;99.90
7842;DHT22;3966;51.052;13.820;2023-04-06T07:04:27;2.20;99.90
7842;DHT22;3966;51.052;13.820;2023-04-06T07:06:53;2.30;99.90
7842;DHT22;3966;51.052;13.820;2023-04-06T07:09:19;2.40;99.90
7842;DHT22;3966;51.052;13.820;2023-04-06T07:11:44;2.60;99.90
7842;DHT22;3966;51.052;13.820;2023-04-06T07:14:10;2.70;99.90
7842;DHT22;3966;51.052;13.820;2023-04-06T07:16:37;2.90;99.90
7842;DHT22;3966;51.052;13.820;2023-04-06T07:19:03;3.10;99.90
7842;DHT22;3966;51.052;13.820;2023-04-06T07:21:28;3.30;99.90
7842;DHT22;3966;51.052;13.820;2023-04-06T07:23:54;3.50;99.90
7842;DHT22;3966;51.052;13.820;2023-04-06T07:26:20;3.60;99.90
7842;DHT22;3966;51.052;13.820;2023-04-06T07:28:46;3.70;99.90
7842;DHT22;3966;51.052;13.820;2023-04-06T07:31:12;3.80;99.90
7842;DHT22;3966;51.052;13.820;2023-04-06T07:33:37;3.90;99.90
7842;DHT22;3966;51.052;13.820;2023-04-06T07:36:03;4.00;99.90
7842;DHT22;3966;51.052;13.820;2023-04-06T07:38:29;4.10;99.90
7842;DHT22;3966;51.052;13.820;2023-04-06T07:40:55;4.30;99.90
7842;DHT22;3966;51.052;13.820;2023-04-06T07:43:20;4.40;99.90
7842;DHT22;3966;51.052;13.820;2023-04-06T07:45:46;4.50;99.90
7842;DHT22;3966;51.052;13.820;2023-04-06T07:48:12;4.60;99.90
7842;DHT22;3966;51.052;13.820;2023-04-06T07:50:37;4.70;99.90
7842;DHT22;3966;51.052;13.820;2023-04-06T07:53:03;4.90;99.90
7842;DHT22;3966;51.052;13.820;2023-04-06T07:55:29;5.00;99.90
7842;DHT22;3966;51.052;13.820;2023-04-06T07:57:55;5.10;99.90
7842;DHT22;3966;51.052;13.820;2023-04-06T08:00:21;5.30;99.90
7842;DHT22;3966;51.052;13.820;2023-04-06T08:02:47;5.30;99.90
7842;DHT22;3966;51.052;13.820;2023-04-06T08:05:13;5.50;99.90
7842;DHT22;3966;51.052;13.820;2023-04-06T08:07:38;5.50;99.90
7842;DHT22;3966;51.052;13.820;2023-04-06T08:10:04;5.70;99.90
7842;DHT22;3966;51.052;13.820;2023-04-06T08:12:31;5.80;99.90
7842;DHT22;3966;51.052;13.820;2023-04-06T08:14:57;5.80;99.90
7842;DHT22;3966;51.052;13.820;2023-04-06T08:17:23;5.90;99.90
7842;DHT22;3966;51.052;13.820;2023-04-06T08:19:48;6.00;99.90
7842;DHT22;3966;51.052;13.820;2023-04-06T08:22:14;6.10;99.90
7842;DHT22;3966;51.052;13.820;2023-04-06T08:24:40;6.20;99.90
7842;DHT22;3966;51.052;13.820;2023-04-06T08:27:06;6.30;99.90
7842;DHT22;3966;51.052;13.820;2023-04-06T08:29:33;6.40;99.90
7842;DHT22;3966;51.052;13.820;2023-04-06T08:31:58;6.60;99.90
7842;DHT22;3966;51.052;13.820;2023-04-06T08:34:24;6.70;99.90
7842;DHT22;3966;51.052;13.820;2023-04-06T08:36:50;6.80;99.90
7842;DHT22;3966;51.052;13.820;2023-04-06T08:39:16;6.90;99.90
7842;DHT22;3966;51.052;13.820;2023-04-06T08:41:42;7.00;99.90
7842;DHT22;3966;51.052;13.820;2023-04-06T08:44:08;7.10;99.90
7842;DHT22;3966;51.052;13.820;2023-04-06T08:46:35;7.20;99.90
7842;DHT22;3966;51.052;13.820;2023-04-06T08:49:02;7.30;99.90
7842;DHT22;3966;51.052;13.820;2023-04-06T08:51:29;7.40;99.90
7842;DHT22;3966;51.052;13.820;2023-04-06T08:53:59;7.40;99.90
7842;DHT22;3966;51.052;13.820;2023-04-06T08:56:27;7.50;99.90
7842;DHT22;3966;51.052;13.820;2023-04-06T08:58:53;7.50;99.90
7842;DHT22;3966;51.052;13.820;2023-04-06T09:01:27;7.70;99.90
7842;DHT22;3966;51.052;13.820;2023-04-06T09:03:58;7.70;99.90
7842;DHT22;3966;51.052;13.820;2023-04-06T09:06:25;7.80;98.50
7842;DHT22;3966;51.052;13.820;2023-04-06T09:08:53;7.80;97.30
7842;DHT22;3966;51.052;13.820;2023-04-06T09:11:20;7.90;96.00
7842;DHT22;3966;51.052;13.820;2023-04-06T09:13:47;8.00;96.10
7842;DHT22;3966;51.052;13.820;2023-04-06T09:16:13;8.10;95.10
7842;DHT22;3966;51.052;13.820;2023-04-06T09:18:39;8.20;95.00
7842;DHT22;3966;51.052;13.820;2023-04-06T09:21:07;8.20;93.60
7842;DHT22;3966;51.052;13.820;2023-04-06T09:23:33;8.20;92.50
7842;DHT22;3966;51.052;13.820;2023-04-06T09:28:47;7.80;92.70
7842;DHT22;3966;51.052;13.820;2023-04-06T09:31:16;8.00;92.60
7842;DHT22;3966;51.052;13.820;2023-04-06T09:33:44;8.20;92.50
7842;DHT22;3966;51.052;13.820;2023-04-06T09:36:11;8.40;91.40
7842;DHT22;3966;51.052;13.820;2023-04-06T09:38:53;8.60;90.30
7842;DHT22;3966;51.052;13.820;2023-04-06T09:41:26;8.80;90.00
7842;DHT22;3966;51.052;13.820;2023-04-06T09:44:04;8.90;86.50
7842;DHT22;3966;51.052;13.820;2023-04-06T09:46:43;8.90;87.10
7842;DHT22;3966;51.052;13.820;2023-04-06T09:49:10;9.10;88.40
7842;DHT22;3966;51.052;13.820;2023-04-06T09:51:47;9.20;83.70
7842;DHT22;3966;51.052;13.820;2023-04-06T09:54:21;9.20;82.50
7842;DHT22;3966;51.052;13.820;2023-04-06T10:05:00;10.00;78.00
7842;DHT22;3966;51.052;13.820;2023-04-06T10:07:28;10.20;76.40
7842;DHT22;3966;51.052;13.820;2023-04-06T10:09:54;9.40;75.90
7842;DHT22;3966;51.052;13.820;2023-04-06T10:12:20;8.80;78.70
7842;DHT22;3966;51.052;13.820;2023-04-06T10:14:46;8.90;78.70
7842;DHT22;3966;51.052;13.820;2023-04-06T10:17:12;9.50;76.20
7842;DHT22;3966;51.052;13.820;2023-04-06T10:19:46;9.90;71.00
7842;DHT22;3966;51.052;13.820;2023-04-06T10:22:22;10.20;73.20
7842;DHT22;3966;51.052;13.820;2023-04-06T10:24:49;10.80;71.30
7842;DHT22;3966;51.052;13.820;2023-04-06T10:27:15;11.00;71.90
7842;DHT22;3966;51.052;13.820;2023-04-06T10:29:46;11.20;68.80
7842;DHT22;3966;51.052;13.820;2023-04-06T10:32:14;11.20;66.20
7842;DHT22;3966;51.052;13.820;2023-04-06T10:34:39;11.00;65.30
7842;DHT22;3966;51.052;13.820;2023-04-06T10:37:15;10.00;66.80
7842;DHT22;3966;51.052;13.820;2023-04-06T10:39:52;9.60;66.10
7842;DHT22;3966;51.052;13.820;2023-04-06T10:42:35;9.70;66.70
7842;DHT22;3966;51.052;13.820;2023-04-06T10:45:01;9.80;67.10
7842;DHT22;3966;51.052;13.820;2023-04-06T10:47:27;9.40;70.90
7842;DHT22;3966;51.052;13.820;2023-04-06T10:49:52;9.30;70.30
7842;DHT22;3966;51.052;13.820;2023-04-06T10:52:18;9.00;71.90
7842;DHT22;3966;51.052;13.820;2023-04-06T10:54:44;9.00;71.60
7842;DHT22;3966;51.052;13.820;2023-04-06T10:57:10;9.20;72.40
7842;DHT22;3966;51.052;13.820;2023-04-06T10:59:42;9.50;73.20
7842;DHT22;3966;51.052;13.820;2023-04-06T11:02:07;9.80;71.20
7842;DHT22;3966;51.052;13.820;2023-04-06T11:04:33;9.90;71.50
7842;DHT22;3966;51.052;13.820;2023-04-06T11:06:59;10.10;70.30
7842;DHT22;3966;51.052;13.820;2023-04-06T11:09:29;10.10;70.80
7842;DHT22;3966;51.052;13.820;2023-04-06T11:11:56;10.20;70.80
7842;DHT22;3966;51.052;13.820;2023-04-06T11:14:22;10.60;70.20
7842;DHT22;3966;51.052;13.820;2023-04-06T11:16:50;11.00;68.70
7842;DHT22;3966;51.052;13.820;2023-04-06T11:19:16;11.40;68.70
7842;DHT22;3966;51.052;13.820;2023-04-06T11:21:44;11.20;67.20
7842;DHT22;3966;51.052;13.820;2023-04-06T11:24:22;10.70;65.90
7842;DHT22;3966;51.052;13.820;2023-04-06T11:26:56;10.30;66.60
7842;DHT22;3966;51.052;13.820;2023-04-06T11:29:24;10.40;66.40
7842;DHT22;3966;51.052;13.820;2023-04-06T11:31:57;10.50;67.80
7842;DHT22;3966;51.052;13.820;2023-04-06T11:34:24;10.30;66.20
7842;DHT22;3966;51.052;13.820;2023-04-06T11:37:10;10.20;66.60
7842;DHT22;3966;51.052;13.820;2023-04-06T11:39:41;10.10;66.40
7842;DHT22;3966;51.052;13.820;2023-04-06T11:42:07;10.60;67.60
7842;DHT22;3966;51.052;13.820;2023-04-06T11:44:34;10.90;67.30
7842;DHT22;3966;51.052;13.820;2023-04-06T11:47:07;11.50;68.80
7842;DHT22;3966;51.052;13.820;2023-04-06T11:49:37;10.70;63.90
7842;DHT22;3966;51.052;13.820;2023-04-06T11:52:03;10.50;66.70
7842;DHT22;3966;51.052;13.820;2023-04-06T11:54:39;11.10;68.40
7842;DHT22;3966;51.052;13.820;2023-04-06T11:57:08;11.70;64.30
7842;DHT22;3966;51.052;13.820;2023-04-06T11:59:35;11.50;64.20
7842;DHT22;3966;51.052;13.820;2023-04-06T12:02:02;11.80;65.50
7842;DHT22;3966;51.052;13.820;2023-04-06T12:04:28;12.90;63.70
7842;DHT22;3966;51.052;13.820;2023-04-06T12:06:54;13.70;61.80
7842;DHT22;3966;51.052;13.820;2023-04-06T12:09:20;14.00;58.60
7842;DHT22;3966;51.052;13.820;2023-04-06T12:11:45;14.20;59.40
7842;DHT22;3966;51.052;13.820;2023-04-06T12:14:12;13.80;57.40
7842;DHT22;3966;51.052;13.820;2023-04-06T12:16:38;14.00;59.00
7842;DHT22;3966;51.052;13.820;2023-04-06T12:19:04;13.60;57.70
7842;DHT22;3966;51.052;13.820;2023-04-06T12:21:31;13.90;58.90
7842;DHT22;3966;51.052;13.820;2023-04-06T12:23:59;13.50;58.30
7842;DHT22;3966;51.052;13.820;2023-04-06T12:26:26;12.70;60.80
7842;DHT22;3966;51.052;13.820;2023-04-06T12:28:53;12.90;62.90
7842;DHT22;3966;51.052;13.820;2023-04-06T12:31:20;12.80;62.10
7842;DHT22;3966;51.052;13.820;2023-04-06T12:33:51;12.50;63.50
7842;DHT22;3966;51.052;13.820;2023-04-06T12:36:19;12.70;62.80
7842;DHT22;3966;51.052;13.820;2023-04-06T12:38:47;12.20;61.70
7842;DHT22;3966;51.052;13.820;2023-04-06T12:41:12;12.20;62.60
7842;DHT22;3966;51.052;13.820;2023-04-06T12:43:42;12.50;62.80
7842;DHT22;3966;51.052;13.820;2023-04-06T12:46:08;12.40;61.90
7842;DHT22;3966;51.052;13.820;2023-04-06T12:48:34;11.50;62.50
7842;DHT22;3966;51.052;13.820;2023-04-06T12:51:03;11.80;63.70
7842;DHT22;3966;51.052;13.820;2023-04-06T12:53:29;12.00;63.70
7842;DHT22;3966;51.052;13.820;2023-04-06T12:55:56;12.20;62.50
7842;DHT22;3966;51.052;13.820;2023-04-06T12:58:23;12.50;63.00
7842;DHT22;3966;51.052;13.820;2023-04-06T13:00:50;12.70;62.00
7842;DHT22;3966;51.052;13.820;2023-04-06T13:03:18;13.10;61.70
7842;DHT22;3966;51.052;13.820;2023-04-06T13:05:44;13.50;60.70
7842;DHT22;3966;51.052;13.820;2023-04-06T13:08:11;13.70;59.10
7842;DHT22;3966;51.052;13.820;2023-04-06T13:10:37;13.60;58.80
7842;DHT22;3966;51.052;13.820;2023-04-06T13:13:03;13.60;61.00
7842;DHT22;3966;51.052;13.820;2023-04-06T13:15:29;14.10;59.60
7842;DHT22;3966;51.052;13.820;2023-04-06T13:17:55;14.30;58.10
7842;DHT22;3966;51.052;13.820;2023-04-06T13:20:20;14.30;58.10
7842;DHT22;3966;51.052;13.820;2023-04-06T13:22:46;13.80;58.10
7842;DHT22;3966;51.052;13.820;2023-04-06T13:25:12;14.30;59.10
7842;DHT22;3966;51.052;13.820;2023-04-06T13:27:38;14.80;56.00
7842;DHT22;3966;51.052;13.820;2023-04-06T13:30:04;15.30;56.30
7842;DHT22;3966;51.052;13.820;2023-04-06T13:32:30;15.80;56.50
7842;DHT22;3966;51.052;13.820;2023-04-06T13:34:57;15.90;56.00
7842;DHT22;3966;51.052;13.820;2023-04-06T13:37:23;15.70;54.50
7842;DHT22;3966;51.052;13.820;2023-04-06T13:39:48;15.60;55.70
7842;DHT22;3966;51.052;13.820;2023-04-06T13:42:14;15.20;55.70
7842;DHT22;3966;51.052;13.820;2023-04-06T13:44:40;14.40;55.90
7842;DHT22;3966;51.052;13.820;2023-04-06T13:47:05;14.00;58.40
7842;DHT22;3966;51.052;13.820;2023-04-06T13:49:31;13.20;58.30
7842;DHT22;3966;51.052;13.820;2023-04-06T13:51:58;13.40;59.50
7842;DHT22;3966;51.052;13.820;2023-04-06T13:54:23;13.10;58.80
7842;DHT22;3966;51.052;13.820;2023-04-06T13:56:51;12.60;59.40
7842;DHT22;3966;51.052;13.820;2023-04-06T13:59:17;12.70;60.60
7842;DHT22;3966;51.052;13.820;2023-04-06T14:01:43;12.50;60.20
7842;DHT22;3966;51.052;13.820;2023-04-06T14:04:08;13.10;60.20
7842;DHT22;3966;51.052;13.820;2023-04-06T14:06:34;13.80;59.80
7842;DHT22;3966;51.052;13.820;2023-04-06T14:08:59;15.10;59.00
7842;DHT22;3966;51.052;13.820;2023-04-06T14:11:25;16.40;57.20
7842;DHT22;3966;51.052;13.820;2023-04-06T14:13:51;17.20;55.90
7842;DHT22;3966;51.052;13.820;2023-04-06T14:16:17;16.90;53.80
7842;DHT22;3966;51.052;13.820;2023-04-06T14:18:45;16.60;53.80
7842;DHT22;3966;51.052;13.820;2023-04-06T14:21:11;16.10;55.20
7842;DHT22;3966;51.052;13.820;2023-04-06T14:23:37;16.30;55.30
7842;DHT22;3966;51.052;13.820;2023-04-06T14:26:04;17.30;54.50
7842;DHT22;3966;51.052;13.820;2023-04-06T14:28:34;17.60;52.80
7842;DHT22;3966;51.052;13.820;2023-04-06T14:31:00;17.80;53.20
7842;DHT22;3966;51.052;13.820;2023-04-06T14:33:26;18.50;52.10
7842;DHT22;3966;51.052;13.820;2023-04-06T14:35:53;17.80;51.30
7842;DHT22;3966;51.052;13.820;2023-04-06T14:38:18;17.40;51.70
7842;DHT22;3966;51.052;13.820;2023-04-06T14:40:44;16.60;52.70
7842;DHT22;3966;51.052;13.820;2023-04-06T14:43:10;16.10;53.80
7842;DHT22;3966;51.052;13.820;2023-04-06T14:45:35;15.70;53.40
7842;DHT22;3966;51.052;13.820;2023-04-06T14:48:02;16.10;55.00
7842;DHT22;3966;51.052;13.820;2023-04-06T14:50:28;16.20;53.40
7842;DHT22;3966;51.052;13.820;2023-04-06T14:52:53;16.30;53.10
7842;DHT22;3966;51.052;13.820;2023-04-06T14:55:20;16.10;53.10
7842;DHT22;3966;51.052;13.820;2023-04-06T14:57:45;16.20;53.80
7842;DHT22;3966;51.052;13.820;2023-04-06T15:00:11;17.50;53.40
7842;DHT22;3966;51.052;13.820;2023-04-06T15:02:39;18.10;51.40
7842;DHT22;3966;51.052;13.820;2023-04-06T15:05:05;18.10;50.00
7842;DHT22;3966;51.052;13.820;2023-04-06T15:07:31;18.10;50.00
7842;DHT22;3966;51.052;13.820;2023-04-06T15:09:57;18.00;49.40
7842;DHT22;3966;51.052;13.820;2023-04-06T15:12:22;16.70;52.00
7842;DHT22;3966;51.052;13.820;2023-04-06T15:14:48;16.70;52.40
7842;DHT22;3966;51.052;13.820;2023-04-06T15:17:13;16.30;51.70
7842;DHT22;3966;51.052;13.820;2023-04-06T15:19:39;16.10;51.80
7842;DHT22;3966;51.052;13.820;2023-04-06T15:22:06;16.60;52.10
7842;DHT22;3966;51.052;13.820;2023-04-06T15:24:31;16.60;52.30
7842;DHT22;3966;51.052;13.820;2023-04-06T15:26:57;16.80;52.70
7842;DHT22;3966;51.052;13.820;2023-04-06T15:29:22;16.70;52.00
7842;DHT22;3966;51.052;13.820;2023-04-06T15:31:48;16.10;52.20
7842;DHT22;3966;51.052;13.820;2023-04-06T15:34:14;16.00;52.70
7842;DHT22;3966;51.052;13.820;2023-04-06T15:36:40;14.30;53.70
7842;DHT22;3966;51.052;13.820;2023-04-06T15:39:06;14.30;56.70
7842;DHT22;3966;51.052;13.820;2023-04-06T15:41:34;16.00;55.50
7842;DHT22;3966;51.052;13.820;2023-04-06T15:44:00;17.00;52.60
7842;DHT22;3966;51.052;13.820;2023-04-06T15:46:25;16.40;53.00
7842;DHT22;3966;51.052;13.820;2023-04-06T15:48:54;16.30;53.20
7842;DHT22;3966;51.052;13.820;2023-04-06T15:51:20;16.60;53.30
7842;DHT22;3966;51.052;13.820;2023-04-06T15:53:45;16.30;52.10
7842;DHT22;3966;51.052;13.820;2023-04-06T15:56:11;15.70;52.80
7842;DHT22;3966;51.052;13.820;2023-04-06T15:58:39;15.00;53.50
7842;DHT22;3966;51.052;13.820;2023-04-06T16:01:16;15.40;53.90
7842;DHT22;3966;51.052;13.820;2023-04-06T16:03:42;16.00;53.60